createdAt,value
2019-02-19T00:01:57.942Z,59.97
2019-02-19T00:04:29.622Z,60.32
2019-02-19T00:07:00.904Z,60.16
2019-02-19T00:09:32.353Z,59.86
2019-02-19T00:12:03.905Z,59.59
2019-02-19T00:14:35.586Z,59.37
2019-02-19T00:17:07.675Z,59.69
2019-02-19T00:19:38.966Z,59.59
2019-02-19T00:22:11.029Z,59.19
2019-02-19T00:24:42.302Z,59.61
2019-02-19T00:27:13.861Z,60.07
2019-02-19T00:29:45.075Z,59.83
2019-02-19T00:32:16.413Z,59.96
2019-02-19T00:34:48.313Z,59.63
2019-02-19T00:37:19.971Z,59.72
2019-02-19T00:39:51.544Z,59.98
2019-02-19T00:42:23.231Z,60.17
2019-02-19T00:44:54.525Z,60.65
2019-02-19T00:47:25.861Z,60.61
2019-02-19T00:49:57.216Z,60.33
2019-02-19T00:52:29.126Z,60.46
2019-02-19T00:55:00.423Z,60.59
2019-02-19T00:57:31.786Z,60.91
2019-02-19T01:00:03.296Z,60.93
2019-02-19T01:02:35.084Z,60.85
2019-02-19T01:05:06.843Z,60.91
2019-02-19T01:07:38.456Z,61.29
2019-02-19T01:10:09.952Z,61.24
2019-02-19T01:12:41.187Z,61.39
2019-02-19T01:15:12.441Z,61.77
2019-02-19T01:17:43.757Z,61.67
2019-02-19T01:20:15.616Z,61.76
2019-02-19T01:22:46.902Z,61.87
2019-02-19T01:25:18.668Z,62.26
2019-02-19T01:27:50.014Z,62.21
2019-02-19T01:30:21.202Z,62.14
2019-02-19T01:32:52.493Z,62.44
2019-02-19T01:35:25.067Z,62.65
2019-02-19T01:37:56.487Z,62.71
2019-02-19T01:40:28.123Z,62.50
2019-02-19T01:42:59.492Z,62.42
2019-02-19T01:45:34.026Z,62.50
2019-02-19T01:48:03.856Z,62.61
2019-02-19T01:50:35.204Z,62.86
2019-02-19T01:53:06.870Z,62.48
2019-02-19T01:55:38.676Z,62.39
2019-02-19T01:58:09.911Z,62.75
2019-02-19T02:00:41.242Z,62.75
2019-02-19T02:03:12.482Z,62.55
2019-02-19T02:05:43.878Z,62.48
2019-02-19T02:08:15.137Z,63.14
2019-02-19T02:10:47.038Z,63.17
2019-02-19T02:13:18.413Z,63.64
2019-02-19T02:15:49.715Z,63.77
2019-02-19T02:18:22.543Z,63.74
2019-02-19T02:20:54.125Z,63.62
2019-02-19T02:23:25.785Z,63.63
2019-02-19T02:25:57.510Z,63.83
2019-02-19T02:28:29.631Z,63.72
2019-02-19T02:31:00.956Z,63.50
2019-02-19T02:33:32.216Z,63.66
2019-02-19T02:36:04.280Z,63.99
2019-02-19T02:38:35.551Z,63.74
2019-02-19T02:41:06.979Z,63.77
2019-02-19T02:43:38.258Z,63.79
2019-02-19T02:46:09.575Z,63.81
2019-02-19T02:48:41.470Z,63.84
2019-02-19T02:51:12.751Z,63.95
2019-02-19T02:53:44.847Z,64.11
2019-02-19T02:56:16.873Z,63.90
2019-02-19T02:58:48.192Z,63.96
2019-02-19T03:01:19.627Z,63.99
2019-02-19T03:03:50.924Z,64.27
2019-02-19T03:08:52.270Z,64.16
2019-02-19T03:11:23.575Z,64.20
2019-02-19T03:13:55.292Z,64.18
2019-02-19T03:16:26.552Z,64.27
2019-02-19T03:18:57.972Z,64.20
2019-02-19T03:21:29.312Z,64.33
2019-02-19T03:24:00.561Z,64.53
2019-02-19T03:26:32.001Z,64.88
2019-02-19T03:29:03.252Z,64.88
2019-02-19T03:31:34.518Z,65.20
2019-02-19T03:34:06.148Z,65.19
2019-02-19T03:36:37.462Z,65.07
2019-02-19T03:39:08.794Z,64.87
2019-02-19T03:41:41.373Z,65.13
2019-02-19T03:44:12.541Z,65.21
2019-02-19T03:46:44.172Z,64.79
2019-02-19T03:49:15.956Z,64.89
2019-02-19T03:51:47.655Z,65.03
2019-02-19T03:54:19.343Z,65.00
2019-02-19T03:56:50.627Z,64.72
2019-02-19T03:59:22.268Z,65.02
2019-02-19T04:01:54.005Z,65.04
2019-02-19T04:04:25.799Z,65.31
2019-02-19T04:06:57.529Z,65.41
2019-02-19T04:09:29.960Z,65.46
2019-02-19T04:12:01.265Z,65.55
2019-02-19T04:14:32.944Z,65.37
2019-02-19T04:17:04.293Z,65.77
2019-02-19T04:19:35.882Z,65.84
2019-02-19T04:22:08.124Z,65.82
2019-02-19T04:24:39.831Z,65.91
2019-02-19T04:27:11.686Z,65.84
2019-02-19T04:29:43.107Z,66.03
2019-02-19T04:32:14.411Z,66.00
2019-02-19T04:34:45.752Z,65.99
2019-02-19T04:37:17.675Z,66.24
2019-02-19T04:39:48.937Z,66.35
2019-02-19T04:42:20.553Z,66.46
2019-02-19T04:44:52.334Z,66.35
2019-02-19T04:47:23.683Z,66.64
2019-02-19T04:49:55.649Z,66.48
2019-02-19T04:52:26.931Z,66.29
2019-02-19T04:54:58.789Z,66.44
2019-02-19T04:57:30.032Z,66.60
2019-02-19T05:00:01.304Z,66.38
2019-02-19T05:02:34.535Z,66.41
2019-02-19T05:05:06.238Z,66.48
2019-02-19T05:07:37.553Z,66.23
2019-02-19T05:10:09.254Z,66.14
2019-02-19T05:12:40.936Z,66.04
2019-02-19T05:15:12.418Z,66.31
2019-02-19T05:17:43.736Z,66.56
2019-02-19T05:20:15.163Z,66.47
2019-02-19T05:22:46.791Z,66.56
2019-02-19T05:25:19.075Z,66.56
2019-02-19T05:27:50.901Z,66.52
2019-02-19T05:30:22.945Z,66.62
2019-02-19T05:32:54.848Z,66.59
2019-02-19T05:35:26.417Z,66.78
2019-02-19T05:37:58.121Z,66.86
2019-02-19T05:40:29.705Z,66.91
2019-02-19T05:43:01.574Z,66.85
2019-02-19T05:45:33.207Z,67.23
2019-02-19T05:48:05.371Z,67.41
2019-02-19T05:50:37.395Z,67.28
2019-02-19T05:53:08.975Z,67.34
2019-02-19T05:55:40.626Z,67.33
2019-02-19T05:58:11.899Z,67.35
2019-02-19T06:00:43.799Z,67.57
2019-02-19T06:03:15.088Z,67.44
2019-02-19T06:05:46.410Z,67.46
2019-02-19T06:08:17.816Z,67.46
2019-02-19T06:10:49.376Z,67.32
2019-02-19T06:13:20.788Z,67.33
2019-02-19T06:15:52.033Z,67.16
2019-02-19T06:18:24.320Z,67.33
2019-02-19T06:20:56.512Z,67.46
2019-02-19T06:23:27.822Z,67.39
2019-02-19T06:25:59.184Z,67.37
2019-02-19T06:28:30.848Z,67.31
2019-02-19T06:31:02.149Z,67.25
2019-02-19T06:33:34.100Z,67.53
2019-02-19T06:36:05.804Z,67.76
2019-02-19T06:38:37.714Z,67.67
2019-02-19T06:41:09.576Z,67.94
2019-02-19T06:43:41.219Z,67.71
2019-02-19T06:46:12.539Z,68.17
2019-02-19T06:48:44.169Z,68.37
2019-02-19T06:51:15.989Z,68.59
2019-02-19T06:53:48.416Z,69.10
2019-02-19T06:56:20.257Z,69.70
2019-02-19T06:58:52.000Z,70.28
2019-02-19T07:01:42.782Z,70.53
2019-02-19T07:04:22.390Z,70.95
2019-02-19T07:06:54.010Z,70.80
2019-02-19T07:09:25.532Z,71.47
2019-02-19T07:11:56.879Z,71.50
2019-02-19T07:14:29.695Z,71.75
2019-02-19T07:17:01.020Z,71.55
2019-02-19T07:19:32.774Z,71.60
2019-02-19T07:22:04.416Z,71.60
2019-02-19T07:24:35.716Z,71.54
2019-02-19T07:27:08.106Z,71.41
2019-02-19T07:29:39.377Z,71.74
2019-02-19T07:32:11.080Z,71.79
2019-02-19T07:34:43.083Z,71.82
2019-02-19T07:37:15.172Z,71.88
2019-02-19T07:39:46.375Z,72.14
2019-02-19T07:42:18.156Z,72.25
2019-02-19T07:44:49.783Z,72.20
2019-02-19T07:47:24.598Z,72.37
2019-02-19T07:49:54.648Z,72.41
2019-02-19T07:52:30.533Z,71.77
2019-02-19T07:55:02.748Z,72.35
2019-02-19T07:57:34.397Z,72.61
2019-02-19T08:00:08.655Z,72.52
2019-02-19T08:02:40.498Z,72.18
2019-02-19T08:05:12.389Z,71.74
2019-02-19T08:07:44.602Z,72.01
2019-02-19T08:10:16.616Z,71.68
2019-02-19T08:12:48.594Z,71.73
2019-02-19T08:15:20.597Z,72.18
2019-02-19T08:17:51.994Z,71.84
2019-02-19T08:20:23.512Z,71.89
2019-02-19T08:22:55.835Z,71.94
2019-02-19T08:25:27.247Z,71.82
2019-02-19T08:27:58.814Z,71.73
2019-02-19T08:30:30.511Z,71.86
2019-02-19T08:33:01.895Z,71.88
2019-02-19T08:35:33.896Z,71.69
2019-02-19T08:38:06.901Z,71.65
2019-02-19T08:40:38.482Z,71.66
2019-02-19T08:43:10.213Z,71.69
2019-02-19T08:45:41.517Z,71.21
2019-02-19T08:48:13.134Z,71.71
2019-02-19T08:50:45.332Z,71.68
2019-02-19T08:53:16.585Z,71.58
2019-02-19T08:55:48.016Z,71.32
2019-02-19T08:58:19.467Z,71.09
2019-02-19T09:00:50.720Z,71.02
2019-02-19T09:03:22.284Z,71.29
2019-02-19T09:05:53.652Z,71.05
2019-02-19T09:08:25.512Z,70.69
2019-02-19T09:10:56.858Z,70.91
2019-02-19T09:13:28.228Z,70.71
2019-02-19T09:15:59.551Z,70.71
2019-02-19T09:18:31.141Z,70.38
2019-02-19T09:21:04.135Z,70.58
2019-02-19T09:23:35.358Z,70.28
2019-02-19T09:26:07.314Z,70.55
2019-02-19T09:28:38.658Z,70.30
2019-02-19T09:31:10.505Z,70.04
2019-02-19T09:33:41.786Z,70.55
2019-02-19T09:36:13.074Z,70.28
2019-02-19T09:38:44.794Z,70.35
2019-02-19T09:41:16.226Z,70.38
2019-02-19T09:43:47.964Z,70.30
2019-02-19T09:46:19.348Z,70.45
2019-02-19T09:48:51.270Z,70.44
2019-02-19T09:51:23.205Z,69.66
2019-02-19T09:53:54.506Z,69.56
2019-02-19T09:56:26.078Z,69.02
2019-02-19T09:58:57.394Z,68.87
2019-02-19T10:01:28.747Z,68.96
2019-02-19T10:04:00.434Z,68.43
2019-02-19T10:06:31.711Z,68.51
2019-02-19T10:09:03.274Z,67.79
2019-02-19T10:11:35.352Z,67.64
2019-02-19T10:14:07.080Z,67.53
2019-02-19T10:16:41.723Z,67.21
2019-02-19T10:19:13.434Z,66.47
2019-02-19T10:21:45.763Z,65.86
2019-02-19T10:24:17.087Z,65.49
2019-02-19T10:26:49.659Z,64.66
2019-02-19T10:29:21.155Z,64.50
2019-02-19T10:31:52.729Z,64.09
2019-02-19T10:34:24.057Z,63.63
2019-02-19T10:36:55.505Z,63.45
2019-02-19T10:39:27.117Z,63.10
2019-02-19T10:41:58.419Z,62.65
2019-02-19T10:44:30.066Z,62.68
2019-02-19T10:47:01.354Z,62.57
2019-02-19T10:49:33.294Z,62.14
2019-02-19T10:52:04.598Z,61.72
2019-02-19T10:54:36.193Z,61.59
2019-02-19T10:57:07.755Z,61.77
2019-02-19T10:59:39.367Z,61.51
2019-02-19T11:02:10.920Z,61.81
2019-02-19T11:04:42.570Z,61.40
2019-02-19T11:07:14.617Z,60.94
2019-02-19T11:09:45.993Z,60.89
2019-02-19T11:12:17.324Z,60.41
2019-02-19T11:14:48.698Z,59.90
2019-02-19T11:17:20.078Z,59.87
2019-02-19T11:19:51.341Z,58.66
2019-02-19T11:22:22.634Z,58.62
2019-02-19T11:24:53.890Z,57.81
2019-02-19T11:27:25.168Z,57.66
2019-02-19T11:29:56.495Z,57.19
2019-02-19T11:32:28.848Z,56.97
2019-02-19T11:35:00.963Z,57.29
2019-02-19T11:37:32.775Z,56.72
2019-02-19T11:40:04.066Z,56.92
2019-02-19T11:42:35.780Z,57.02
2019-02-19T11:45:09.362Z,56.38
2019-02-19T11:47:41.405Z,55.46
2019-02-19T11:50:13.992Z,56.24
2019-02-19T11:52:46.265Z,56.42
2019-02-19T11:55:17.658Z,56.13
2019-02-19T11:57:49.254Z,56.54
2019-02-19T12:00:24.742Z,56.44
2019-02-19T12:02:56.351Z,56.47
2019-02-19T12:05:27.628Z,56.67
2019-02-19T12:07:58.951Z,56.83
2019-02-19T12:10:30.392Z,56.71
2019-02-19T12:13:02.381Z,55.97
2019-02-19T12:15:35.439Z,55.63
2019-02-19T12:18:07.244Z,56.18
2019-02-19T12:20:38.487Z,56.19
2019-02-19T12:23:10.474Z,55.65
2019-02-19T12:25:41.726Z,55.03
2019-02-19T12:28:12.953Z,54.55
2019-02-19T12:30:45.703Z,53.49
2019-02-19T12:33:17.242Z,53.94
2019-02-19T12:35:48.537Z,53.74
2019-02-19T12:38:19.844Z,53.11
2019-02-19T12:40:51.115Z,52.89
2019-02-19T12:43:22.417Z,52.76
2019-02-19T12:45:54.101Z,52.88
2019-02-19T12:48:27.980Z,52.79
2019-02-19T12:50:59.714Z,52.80
2019-02-19T12:53:31.470Z,53.38
2019-02-19T12:56:03.627Z,53.83
2019-02-19T12:58:35.643Z,54.42
2019-02-19T13:01:08.613Z,54.03
2019-02-19T13:03:39.871Z,54.41
2019-02-19T13:06:11.088Z,54.30
2019-02-19T13:08:42.695Z,54.54
2019-02-19T13:11:16.058Z,54.61
2019-02-19T13:13:47.956Z,54.81
2019-02-19T13:16:19.768Z,54.72
2019-02-19T13:18:51.310Z,54.97
2019-02-19T13:21:23.160Z,55.22
2019-02-19T13:23:55.060Z,55.50
2019-02-19T13:26:26.799Z,55.01
2019-02-19T13:28:58.144Z,56.35
2019-02-19T13:31:29.508Z,55.38
2019-02-19T13:34:02.097Z,55.86
2019-02-19T13:36:33.645Z,55.49
2019-02-19T13:39:06.010Z,56.20
2019-02-19T13:41:37.937Z,56.66
2019-02-19T13:44:10.042Z,56.69
2019-02-19T13:46:41.297Z,55.99
2019-02-19T13:49:13.186Z,57.19
2019-02-19T13:51:44.431Z,56.97
2019-02-19T13:54:20.203Z,56.60
2019-02-19T13:56:52.028Z,57.08
2019-02-19T13:59:23.304Z,57.74
2019-02-19T14:01:54.892Z,57.36
2019-02-19T14:04:26.137Z,57.57
2019-02-19T14:06:57.790Z,58.09
2019-02-19T14:09:29.115Z,57.59
2019-02-19T14:12:00.778Z,58.12
2019-02-19T14:14:37.554Z,58.00
2019-02-19T14:17:12.541Z,58.46
2019-02-19T14:19:47.172Z,58.49
2019-02-19T14:22:36.133Z,58.23
2019-02-19T14:25:34.034Z,57.76
2019-02-19T14:28:33.839Z,58.08
2019-02-19T14:31:30.120Z,58.31
2019-02-19T14:34:23.378Z,58.04
2019-02-19T14:37:23.219Z,58.14
2019-02-19T14:40:13.491Z,58.09
2019-02-19T14:43:04.232Z,58.66
2019-02-19T14:45:57.150Z,58.48
2019-02-19T14:48:56.819Z,58.50
2019-02-19T14:51:45.687Z,58.61
2019-02-19T14:54:34.401Z,58.74
2019-02-19T14:57:24.627Z,58.81
2019-02-19T15:00:17.062Z,59.13
2019-02-19T15:03:06.960Z,58.71
2019-02-19T15:05:55.984Z,58.97
2019-02-19T15:08:44.699Z,58.63
2019-02-19T15:11:27.294Z,58.81
2019-02-19T15:14:18.304Z,58.68
2019-02-19T15:17:08.404Z,58.86
2019-02-19T15:20:01.673Z,59.31
2019-02-19T15:22:54.867Z,59.37
2019-02-19T15:25:43.851Z,59.55
2019-02-19T15:28:40.058Z,60.11
2019-02-19T15:31:36.837Z,59.48
2019-02-19T15:34:23.662Z,59.72
2019-02-19T15:37:13.135Z,59.64
2019-02-19T15:40:06.980Z,59.63
2019-02-19T15:43:03.381Z,59.75
2019-02-19T15:45:52.092Z,59.91
2019-02-19T15:48:54.559Z,59.54
2019-02-19T15:51:50.752Z,59.83
2019-02-19T15:54:46.998Z,59.69
2019-02-19T15:57:49.369Z,60.11
2019-02-19T16:00:39.650Z,60.17
2019-02-19T16:03:36.810Z,59.85
2019-02-19T16:06:41.957Z,59.84
2019-02-19T16:09:34.887Z,59.18
2019-02-19T16:12:29.292Z,59.04
2019-02-19T16:15:06.476Z,59.72
2019-02-19T16:17:59.399Z,59.68
2019-02-19T16:20:55.547Z,59.43
2019-02-19T16:23:45.778Z,59.58
2019-02-19T16:26:45.267Z,59.92
2019-02-19T16:29:41.432Z,59.27
2019-02-19T16:32:38.209Z,59.50
2019-02-19T16:35:27.457Z,60.01
2019-02-19T16:38:13.442Z,60.16
2019-02-19T16:41:03.762Z,59.82
2019-02-19T16:44:13.065Z,60.09
2019-02-19T16:47:03.231Z,62.14
2019-02-19T16:49:51.313Z,62.89
2019-02-19T16:52:45.147Z,64.03
2019-02-19T16:55:42.123Z,64.11
2019-02-19T16:58:27.734Z,64.05
2019-02-19T17:01:21.164Z,64.00
2019-02-19T17:04:17.731Z,63.93
2019-02-19T17:07:09.988Z,63.83
2019-02-19T17:10:12.073Z,63.85
2019-02-19T17:13:00.716Z,63.74
2019-02-19T17:15:49.422Z,63.21
2019-02-19T17:18:45.550Z,63.68
2019-02-19T17:21:40.375Z,63.67
2019-02-19T17:24:29.199Z,64.12
2019-02-19T17:27:17.818Z,63.82
2019-02-19T17:30:06.755Z,64.15
2019-02-19T17:32:47.972Z,64.19
2019-02-19T17:35:44.395Z,65.97
2019-02-19T17:38:21.577Z,68.29
2019-02-19T17:41:03.015Z,69.92
2019-02-19T17:43:48.612Z,71.51
2019-02-19T17:46:32.758Z,73.56
2019-02-19T17:49:25.969Z,74.25
2019-02-19T17:52:10.085Z,74.77
2019-02-19T17:54:56.550Z,74.64
2019-02-19T17:57:46.684Z,74.35
2019-02-19T18:00:35.252Z,73.96
2019-02-19T18:03:27.169Z,74.17
2019-02-19T18:06:17.030Z,74.25
2019-02-19T18:09:10.462Z,74.20
2019-02-19T18:11:49.425Z,74.66
2019-02-19T18:14:38.668Z,74.42
2019-02-19T18:17:32.012Z,74.39
2019-02-19T18:20:04.025Z,74.85
2019-02-19T18:22:35.704Z,74.56
2019-02-19T18:25:07.622Z,74.78
2019-02-19T18:27:39.236Z,75.10
2019-02-19T18:30:10.816Z,74.46
2019-02-19T18:32:42.564Z,75.34
2019-02-19T18:35:14.865Z,74.91
2019-02-19T18:37:46.178Z,75.75
2019-02-19T18:40:17.540Z,74.87
2019-02-19T18:42:49.607Z,75.55
2019-02-19T18:45:21.077Z,75.57
2019-02-19T18:47:52.757Z,75.10
2019-02-19T18:50:24.019Z,75.61
2019-02-19T18:53:00.016Z,75.11
2019-02-19T18:55:31.651Z,75.67
2019-02-19T18:58:06.387Z,75.45
2019-02-19T19:00:38.278Z,75.45
2019-02-19T19:03:09.908Z,75.81
2019-02-19T19:05:43.612Z,75.91
2019-02-19T19:08:28.828Z,75.61
2019-02-19T19:10:59.691Z,75.75
2019-02-19T19:13:36.283Z,76.21
2019-02-19T19:16:07.591Z,75.97
2019-02-19T19:18:39.513Z,75.84
2019-02-19T19:21:15.077Z,75.10
2019-02-19T19:23:52.826Z,75.38
2019-02-19T19:26:32.990Z,75.11
2019-02-19T19:29:04.392Z,74.75
2019-02-19T19:31:36.040Z,74.99
2019-02-19T19:34:07.373Z,74.09
2019-02-19T19:36:39.032Z,73.79
2019-02-19T19:39:10.761Z,73.59
2019-02-19T19:41:42.206Z,73.45
2019-02-19T19:44:13.754Z,73.25
2019-02-19T19:46:45.986Z,72.91
2019-02-19T19:49:17.438Z,72.80
2019-02-19T19:51:48.856Z,73.07
2019-02-19T19:54:20.454Z,72.46
2019-02-19T19:56:51.776Z,72.51
2019-02-19T19:59:23.350Z,72.65
2019-02-19T20:01:54.943Z,72.67
2019-02-19T20:04:26.628Z,73.14
2019-02-19T20:06:58.252Z,72.64
2019-02-19T20:09:29.670Z,72.57
2019-02-19T20:12:04.225Z,73.09
2019-02-19T20:14:35.494Z,72.99
2019-02-19T20:17:06.906Z,72.85
2019-02-19T20:19:38.865Z,73.20
2019-02-19T20:22:10.544Z,72.99
2019-02-19T20:24:41.802Z,72.99
2019-02-19T20:27:13.190Z,72.88
2019-02-19T20:29:45.152Z,73.17
2019-02-19T20:32:16.680Z,73.34
2019-02-19T20:34:48.146Z,73.58
2019-02-19T20:37:22.154Z,73.41
2019-02-19T20:39:53.145Z,73.45
2019-02-19T20:42:24.904Z,73.57
2019-02-19T20:44:56.332Z,73.84
2019-02-19T20:47:28.308Z,73.80
2019-02-19T20:49:59.806Z,74.06
2019-02-19T20:52:31.222Z,73.50
2019-02-19T20:55:02.493Z,73.50
2019-02-19T20:57:35.268Z,74.20
2019-02-19T21:00:10.301Z,74.14
2019-02-19T21:02:41.714Z,73.81
2019-02-19T21:05:13.138Z,73.53
2019-02-19T21:07:44.764Z,73.93
2019-02-19T21:10:18.138Z,73.34
2019-02-19T21:12:50.040Z,73.86
2019-02-19T21:15:21.400Z,73.95
2019-02-19T21:17:52.720Z,73.30
2019-02-19T21:20:24.362Z,73.03
2019-02-19T21:22:55.692Z,73.03
2019-02-19T21:25:30.966Z,72.99
2019-02-19T21:27:59.839Z,72.57
2019-02-19T21:37:16.066Z,72.33
2019-02-19T21:39:47.455Z,72.04
2019-02-19T21:42:18.969Z,71.91
2019-02-19T21:44:50.373Z,71.88
2019-02-19T21:47:22.068Z,71.76
2019-02-19T21:49:54.487Z,71.62
2019-02-19T21:52:28.230Z,71.45
2019-02-19T21:55:00.047Z,71.10
2019-02-19T21:57:32.378Z,71.17
2019-02-19T22:00:03.805Z,71.07
2019-02-19T22:02:35.243Z,71.13
2019-02-19T22:05:09.999Z,71.10
2019-02-19T22:07:41.401Z,70.85
2019-02-19T22:10:13.042Z,70.70
2019-02-19T22:12:44.676Z,70.73
2019-02-19T22:15:16.238Z,70.77
2019-02-19T22:17:47.579Z,70.30
2019-02-19T22:20:34.912Z,70.43
2019-02-19T22:23:06.997Z,70.29
2019-02-19T22:25:39.128Z,70.45
2019-02-19T22:28:10.543Z,70.78
2019-02-19T22:30:42.256Z,70.77
2019-02-19T22:33:13.623Z,70.93
2019-02-19T22:35:44.960Z,71.27
2019-02-19T22:38:17.605Z,71.45
2019-02-19T22:40:54.956Z,71.75
2019-02-19T22:43:22.677Z,71.79
2019-02-19T22:45:54.349Z,72.09
2019-02-19T22:48:31.578Z,72.22
2019-02-19T22:51:03.067Z,72.05
2019-02-19T22:54:05.733Z,72.25
2019-02-19T22:56:40.183Z,73.03
2019-02-19T22:59:12.400Z,72.87
2019-02-19T23:02:07.435Z,72.69
2019-02-19T23:04:39.192Z,72.76
2019-02-19T23:07:10.597Z,72.85
2019-02-19T23:09:43.252Z,72.82
2019-02-19T23:12:14.967Z,72.81
2019-02-19T23:14:47.443Z,72.81
2019-02-19T23:17:19.495Z,73.12
2019-02-19T23:19:51.001Z,73.16
2019-02-19T23:22:22.346Z,73.43
2019-02-19T23:24:53.790Z,73.54
2019-02-19T23:27:25.173Z,73.47
2019-02-19T23:29:57.018Z,73.80
2019-02-19T23:32:28.420Z,73.48
2019-02-19T23:35:23.360Z,74.08
2019-02-19T23:37:56.179Z,74.94
2019-02-19T23:40:27.577Z,74.92
2019-02-19T23:43:00.183Z,75.18
2019-02-19T23:45:32.127Z,75.66
2019-02-19T23:48:06.815Z,75.36
2019-02-19T23:50:38.999Z,75.51
2019-02-19T23:53:10.827Z,75.38
2019-02-19T23:55:42.217Z,75.64
2019-02-19T23:58:13.941Z,75.26
